sensor_id;sensor_type;location;lat;lon;timestamp;P1;durP1;ratioP1;P2;durP2;ratioP2
21554;SDS011;10938;44.794;-0.676;2022-10-13T00:00:18;11.80;;;6.15;;
21554;SDS011;10938;44.794;-0.676;2022-10-13T00:02:44;7.18;;;5.70;;
21554;SDS011;10938;44.794;-0.676;2022-10-13T00:05:09;9.25;;;5.57;;
21554;SDS011;10938;44.794;-0.676;2022-10-13T00:07:35;11.02;;;6.00;;
21554;SDS011;10938;44.794;-0.676;2022-10-13T00:10:00;9.77;;;6.22;;
21554;SDS011;10938;44.794;-0.676;2022-10-13T00:12:25;9.73;;;6.35;;
21554;SDS011;10938;44.794;-0.676;2022-10-13T00:14:51;7.63;;;5.90;;
21554;SDS011;10938;44.794;-0.676;2022-10-13T00:17:16;9.80;;;6.05;;
21554;SDS011;10938;44.794;-0.676;2022-10-13T00:19:42;9.52;;;6.55;;
21554;SDS011;10938;44.794;-0.676;2022-10-13T00:22:07;8.65;;;5.40;;
21554;SDS011;10938;44.794;-0.676;2022-10-13T00:24:33;8.40;;;5.90;;
21554;SDS011;10938;44.794;-0.676;2022-10-13T00:26:58;12.20;;;6.65;;
21554;SDS011;10938;44.794;-0.676;2022-10-13T00:29:24;11.18;;;7.75;;
21554;SDS011;10938;44.794;-0.676;2022-10-13T00:31:49;13.63;;;7.45;;
21554;SDS011;10938;44.794;-0.676;2022-10-13T00:34:14;10.50;;;6.18;;
21554;SDS011;10938;44.794;-0.676;2022-10-13T00:36:40;11.32;;;6.00;;
21554;SDS011;10938;44.794;-0.676;2022-10-13T00:39:05;9.43;;;5.80;;
21554;SDS011;10938;44.794;-0.676;2022-10-13T00:41:31;9.98;;;5.93;;
21554;SDS011;10938;44.794;-0.676;2022-10-13T00:46:27;13.90;;;7.50;;
21554;SDS011;10938;44.794;-0.676;2022-10-13T00:48:54;11.00;;;7.35;;
21554;SDS011;10938;44.794;-0.676;2022-10-13T00:51:23;10.30;;;6.20;;
21554;SDS011;10938;44.794;-0.676;2022-10-13T00:53:52;8.90;;;4.90;;
21554;SDS011;10938;44.794;-0.676;2022-10-13T00:56:18;9.50;;;5.95;;
21554;SDS011;10938;44.794;-0.676;2022-10-13T00:58:45;9.88;;;5.93;;
21554;SDS011;10938;44.794;-0.676;2022-10-13T01:01:12;9.23;;;5.97;;
21554;SDS011;10938;44.794;-0.676;2022-10-13T01:03:38;9.15;;;5.80;;
21554;SDS011;10938;44.794;-0.676;2022-10-13T01:06:03;8.75;;;5.80;;
21554;SDS011;10938;44.794;-0.676;2022-10-13T01:08:31;9.00;;;5.32;;
21554;SDS011;10938;44.794;-0.676;2022-10-13T01:13:57;10.93;;;6.13;;
21554;SDS011;10938;44.794;-0.676;2022-10-13T01:19:37;10.30;;;6.03;;
21554;SDS011;10938;44.794;-0.676;2022-10-13T01:36:12;7.53;;;5.15;;
21554;SDS011;10938;44.794;-0.676;2022-10-13T01:41:13;14.88;;;6.68;;
21554;SDS011;10938;44.794;-0.676;2022-10-13T01:43:51;7.70;;;5.38;;
21554;SDS011;10938;44.794;-0.676;2022-10-13T01:46:31;9.18;;;6.45;;
21554;SDS011;10938;44.794;-0.676;2022-10-13T01:49:00;5.85;;;5.28;;
21554;SDS011;10938;44.794;-0.676;2022-10-13T01:51:30;9.65;;;6.32;;
21554;SDS011;10938;44.794;-0.676;2022-10-13T01:53:56;8.25;;;5.80;;
21554;SDS011;10938;44.794;-0.676;2022-10-13T01:56:22;9.95;;;6.00;;
21554;SDS011;10938;44.794;-0.676;2022-10-13T01:58:49;9.07;;;6.57;;
21554;SDS011;10938;44.794;-0.676;2022-10-13T02:10:10;8.50;;;5.80;;
21554;SDS011;10938;44.794;-0.676;2022-10-13T02:12:11;7.45;;;5.82;;
21554;SDS011;10938;44.794;-0.676;2022-10-13T02:14:42;8.52;;;6.47;;
21554;SDS011;10938;44.794;-0.676;2022-10-13T02:17:10;7.68;;;5.90;;
21554;SDS011;10938;44.794;-0.676;2022-10-13T02:19:37;12.00;;;6.80;;
21554;SDS011;10938;44.794;-0.676;2022-10-13T02:22:04;11.25;;;7.05;;
21554;SDS011;10938;44.794;-0.676;2022-10-13T02:24:31;13.65;;;7.20;;
21554;SDS011;10938;44.794;-0.676;2022-10-13T02:26:57;11.07;;;7.20;;
21554;SDS011;10938;44.794;-0.676;2022-10-13T02:29:22;8.43;;;7.07;;
21554;SDS011;10938;44.794;-0.676;2022-10-13T02:31:48;8.57;;;6.05;;
21554;SDS011;10938;44.794;-0.676;2022-10-13T02:34:13;10.13;;;6.50;;
21554;SDS011;10938;44.794;-0.676;2022-10-13T02:36:39;7.95;;;5.55;;
21554;SDS011;10938;44.794;-0.676;2022-10-13T02:39:08;11.88;;;7.07;;
21554;SDS011;10938;44.794;-0.676;2022-10-13T02:41:34;10.18;;;7.18;;
21554;SDS011;10938;44.794;-0.676;2022-10-13T02:44:00;11.27;;;6.97;;
21554;SDS011;10938;44.794;-0.676;2022-10-13T02:46:25;12.50;;;7.63;;
21554;SDS011;10938;44.794;-0.676;2022-10-13T02:48:51;13.98;;;7.50;;
21554;SDS011;10938;44.794;-0.676;2022-10-13T02:51:16;7.57;;;5.90;;
21554;SDS011;10938;44.794;-0.676;2022-10-13T02:53:42;8.45;;;6.35;;
21554;SDS011;10938;44.794;-0.676;2022-10-13T02:56:07;10.07;;;7.10;;
21554;SDS011;10938;44.794;-0.676;2022-10-13T02:58:33;10.13;;;6.88;;
21554;SDS011;10938;44.794;-0.676;2022-10-13T03:01:09;9.65;;;6.32;;
21554;SDS011;10938;44.794;-0.676;2022-10-13T03:03:38;8.75;;;6.40;;
21554;SDS011;10938;44.794;-0.676;2022-10-13T03:06:04;9.15;;;6.15;;
21554;SDS011;10938;44.794;-0.676;2022-10-13T03:08:31;8.63;;;5.68;;
21554;SDS011;10938;44.794;-0.676;2022-10-13T03:10:57;12.57;;;7.53;;
21554;SDS011;10938;44.794;-0.676;2022-10-13T03:13:23;11.45;;;7.38;;
21554;SDS011;10938;44.794;-0.676;2022-10-13T03:15:48;12.85;;;8.35;;
21554;SDS011;10938;44.794;-0.676;2022-10-13T03:18:14;11.85;;;7.28;;
21554;SDS011;10938;44.794;-0.676;2022-10-13T03:20:40;13.38;;;7.82;;
21554;SDS011;10938;44.794;-0.676;2022-10-13T03:23:05;11.95;;;7.55;;
21554;SDS011;10938;44.794;-0.676;2022-10-13T03:25:31;17.75;;;8.70;;
21554;SDS011;10938;44.794;-0.676;2022-10-13T03:28:01;13.30;;;8.13;;
21554;SDS011;10938;44.794;-0.676;2022-10-13T03:30:26;12.63;;;8.20;;
21554;SDS011;10938;44.794;-0.676;2022-10-13T03:32:52;17.80;;;10.55;;
21554;SDS011;10938;44.794;-0.676;2022-10-13T03:35:18;14.20;;;8.75;;
21554;SDS011;10938;44.794;-0.676;2022-10-13T03:37:43;16.63;;;10.07;;
21554;SDS011;10938;44.794;-0.676;2022-10-13T03:40:09;14.25;;;10.02;;
21554;SDS011;10938;44.794;-0.676;2022-10-13T03:42:35;17.02;;;9.95;;
21554;SDS011;10938;44.794;-0.676;2022-10-13T03:45:02;12.38;;;8.48;;
21554;SDS011;10938;44.794;-0.676;2022-10-13T03:47:28;14.63;;;9.57;;
21554;SDS011;10938;44.794;-0.676;2022-10-13T03:49:54;14.02;;;8.90;;
21554;SDS011;10938;44.794;-0.676;2022-10-13T03:52:20;14.93;;;9.10;;
21554;SDS011;10938;44.794;-0.676;2022-10-13T03:54:46;16.40;;;8.82;;
21554;SDS011;10938;44.794;-0.676;2022-10-13T03:57:12;13.32;;;8.10;;
21554;SDS011;10938;44.794;-0.676;2022-10-13T03:59:40;11.43;;;8.07;;
21554;SDS011;10938;44.794;-0.676;2022-10-13T04:02:06;14.45;;;8.85;;
21554;SDS011;10938;44.794;-0.676;2022-10-13T04:04:32;14.73;;;8.50;;
21554;SDS011;10938;44.794;-0.676;2022-10-13T04:06:59;13.05;;;8.80;;
21554;SDS011;10938;44.794;-0.676;2022-10-13T04:09:25;16.60;;;9.40;;
21554;SDS011;10938;44.794;-0.676;2022-10-13T04:11:50;14.23;;;8.77;;
21554;SDS011;10938;44.794;-0.676;2022-10-13T04:14:16;17.42;;;9.48;;
21554;SDS011;10938;44.794;-0.676;2022-10-13T04:16:42;12.35;;;8.63;;
21554;SDS011;10938;44.794;-0.676;2022-10-13T04:19:09;18.73;;;10.95;;
21554;SDS011;10938;44.794;-0.676;2022-10-13T04:21:37;13.93;;;9.23;;
21554;SDS011;10938;44.794;-0.676;2022-10-13T04:24:02;15.85;;;9.52;;
21554;SDS011;10938;44.794;-0.676;2022-10-13T04:26:30;15.35;;;9.05;;
21554;SDS011;10938;44.794;-0.676;2022-10-13T04:28:58;10.05;;;7.25;;
21554;SDS011;10938;44.794;-0.676;2022-10-13T04:31:27;13.38;;;8.13;;
21554;SDS011;10938;44.794;-0.676;2022-10-13T04:33:53;12.07;;;7.93;;
21554;SDS011;10938;44.794;-0.676;2022-10-13T04:36:19;10.10;;;7.05;;
21554;SDS011;10938;44.794;-0.676;2022-10-13T04:38:45;13.55;;;8.35;;
21554;SDS011;10938;44.794;-0.676;2022-10-13T04:41:11;17.70;;;9.27;;
21554;SDS011;10938;44.794;-0.676;2022-10-13T04:43:38;15.70;;;7.43;;
21554;SDS011;10938;44.794;-0.676;2022-10-13T04:46:13;15.07;;;8.88;;
21554;SDS011;10938;44.794;-0.676;2022-10-13T04:48:44;17.63;;;8.82;;
21554;SDS011;10938;44.794;-0.676;2022-10-13T04:51:11;12.23;;;8.43;;
21554;SDS011;10938;44.794;-0.676;2022-10-13T04:53:38;12.98;;;8.27;;
21554;SDS011;10938;44.794;-0.676;2022-10-13T04:56:06;12.68;;;8.55;;
21554;SDS011;10938;44.794;-0.676;2022-10-13T04:58:33;12.25;;;8.13;;
21554;SDS011;10938;44.794;-0.676;2022-10-13T05:00:59;13.30;;;8.10;;
21554;SDS011;10938;44.794;-0.676;2022-10-13T05:03:25;17.38;;;8.35;;
21554;SDS011;10938;44.794;-0.676;2022-10-13T05:05:51;12.23;;;7.18;;
21554;SDS011;10938;44.794;-0.676;2022-10-13T05:08:17;10.45;;;6.38;;
21554;SDS011;10938;44.794;-0.676;2022-10-13T05:10:51;16.45;;;9.02;;
21554;SDS011;10938;44.794;-0.676;2022-10-13T05:13:21;10.98;;;6.55;;
21554;SDS011;10938;44.794;-0.676;2022-10-13T05:15:47;10.40;;;6.65;;
21554;SDS011;10938;44.794;-0.676;2022-10-13T05:18:12;11.07;;;9.18;;
21554;SDS011;10938;44.794;-0.676;2022-10-13T05:20:37;13.38;;;9.63;;
21554;SDS011;10938;44.794;-0.676;2022-10-13T05:23:03;17.25;;;8.77;;
21554;SDS011;10938;44.794;-0.676;2022-10-13T05:25:28;13.32;;;8.38;;
21554;SDS011;10938;44.794;-0.676;2022-10-13T05:27:53;20.92;;;10.25;;
21554;SDS011;10938;44.794;-0.676;2022-10-13T05:30:19;13.25;;;10.13;;
21554;SDS011;10938;44.794;-0.676;2022-10-13T05:32:44;14.15;;;8.73;;
21554;SDS011;10938;44.794;-0.676;2022-10-13T05:35:10;16.25;;;9.43;;
21554;SDS011;10938;44.794;-0.676;2022-10-13T05:37:35;15.15;;;9.60;;
21554;SDS011;10938;44.794;-0.676;2022-10-13T05:40:00;15.43;;;8.98;;
21554;SDS011;10938;44.794;-0.676;2022-10-13T05:42:27;19.70;;;10.98;;
21554;SDS011;10938;44.794;-0.676;2022-10-13T05:44:53;17.95;;;9.88;;
21554;SDS011;10938;44.794;-0.676;2022-10-13T05:47:19;18.75;;;11.15;;
21554;SDS011;10938;44.794;-0.676;2022-10-13T05:49:47;20.52;;;12.90;;
21554;SDS011;10938;44.794;-0.676;2022-10-13T05:52:12;14.93;;;9.13;;
21554;SDS011;10938;44.794;-0.676;2022-10-13T05:54:39;13.10;;;8.75;;
21554;SDS011;10938;44.794;-0.676;2022-10-13T05:57:11;15.82;;;8.73;;
21554;SDS011;10938;44.794;-0.676;2022-10-13T06:00:03;14.13;;;9.85;;
21554;SDS011;10938;44.794;-0.676;2022-10-13T06:02:33;15.50;;;10.75;;
21554;SDS011;10938;44.794;-0.676;2022-10-13T06:05:05;18.70;;;11.35;;
21554;SDS011;10938;44.794;-0.676;2022-10-13T06:07:35;18.25;;;11.30;;
21554;SDS011;10938;44.794;-0.676;2022-10-13T06:10:00;17.80;;;10.55;;
21554;SDS011;10938;44.794;-0.676;2022-10-13T06:12:26;15.70;;;10.30;;
21554;SDS011;10938;44.794;-0.676;2022-10-13T06:14:51;18.83;;;12.25;;
21554;SDS011;10938;44.794;-0.676;2022-10-13T06:17:16;16.48;;;11.30;;
21554;SDS011;10938;44.794;-0.676;2022-10-13T06:19:42;18.40;;;10.35;;
21554;SDS011;10938;44.794;-0.676;2022-10-13T06:22:09;12.82;;;10.00;;
21554;SDS011;10938;44.794;-0.676;2022-10-13T06:24:35;17.00;;;10.18;;
21554;SDS011;10938;44.794;-0.676;2022-10-13T06:27:00;17.25;;;9.45;;
21554;SDS011;10938;44.794;-0.676;2022-10-13T06:29:26;19.70;;;10.23;;
21554;SDS011;10938;44.794;-0.676;2022-10-13T06:31:51;14.05;;;9.80;;
21554;SDS011;10938;44.794;-0.676;2022-10-13T06:34:16;12.35;;;8.48;;
21554;SDS011;10938;44.794;-0.676;2022-10-13T06:36:42;16.58;;;9.40;;
21554;SDS011;10938;44.794;-0.676;2022-10-13T06:39:07;15.82;;;10.95;;
21554;SDS011;10938;44.794;-0.676;2022-10-13T06:41:33;20.63;;;11.75;;
21554;SDS011;10938;44.794;-0.676;2022-10-13T06:43:58;19.23;;;9.77;;
21554;SDS011;10938;44.794;-0.676;2022-10-13T06:46:24;14.10;;;8.27;;
21554;SDS011;10938;44.794;-0.676;2022-10-13T06:48:49;13.18;;;8.30;;
21554;SDS011;10938;44.794;-0.676;2022-10-13T06:51:15;13.63;;;8.60;;
21554;SDS011;10938;44.794;-0.676;2022-10-13T06:53:41;16.60;;;9.48;;
21554;SDS011;10938;44.794;-0.676;2022-10-13T06:56:07;17.77;;;9.88;;
21554;SDS011;10938;44.794;-0.676;2022-10-13T06:58:34;14.23;;;10.68;;
21554;SDS011;10938;44.794;-0.676;2022-10-13T07:01:03;16.17;;;10.90;;
21554;SDS011;10938;44.794;-0.676;2022-10-13T07:03:29;20.73;;;12.77;;
21554;SDS011;10938;44.794;-0.676;2022-10-13T07:05:59;20.85;;;13.20;;
21554;SDS011;10938;44.794;-0.676;2022-10-13T07:08:28;17.90;;;9.65;;
21554;SDS011;10938;44.794;-0.676;2022-10-13T07:10:54;15.80;;;8.95;;
21554;SDS011;10938;44.794;-0.676;2022-10-13T07:13:22;17.23;;;8.75;;
21554;SDS011;10938;44.794;-0.676;2022-10-13T07:15:48;13.95;;;10.15;;
21554;SDS011;10938;44.794;-0.676;2022-10-13T07:18:13;15.57;;;9.25;;
21554;SDS011;10938;44.794;-0.676;2022-10-13T07:20:38;15.95;;;9.98;;
21554;SDS011;10938;44.794;-0.676;2022-10-13T07:23:04;14.18;;;9.07;;
21554;SDS011;10938;44.794;-0.676;2022-10-13T07:25:29;17.10;;;7.10;;
21554;SDS011;10938;44.794;-0.676;2022-10-13T07:27:57;15.75;;;8.27;;
21554;SDS011;10938;44.794;-0.676;2022-10-13T07:30:23;25.50;;;9.77;;
21554;SDS011;10938;44.794;-0.676;2022-10-13T07:32:50;12.50;;;7.38;;
21554;SDS011;10938;44.794;-0.676;2022-10-13T07:35:18;12.95;;;7.30;;
21554;SDS011;10938;44.794;-0.676;2022-10-13T07:37:45;13.52;;;8.00;;
21554;SDS011;10938;44.794;-0.676;2022-10-13T07:40:11;12.98;;;7.95;;
21554;SDS011;10938;44.794;-0.676;2022-10-13T07:42:36;8.98;;;6.50;;
21554;SDS011;10938;44.794;-0.676;2022-10-13T07:45:02;11.70;;;7.18;;
21554;SDS011;10938;44.794;-0.676;2022-10-13T07:47:28;19.40;;;8.38;;
21554;SDS011;10938;44.794;-0.676;2022-10-13T07:49:53;11.50;;;7.55;;
21554;SDS011;10938;44.794;-0.676;2022-10-13T07:52:19;12.07;;;7.45;;
21554;SDS011;10938;44.794;-0.676;2022-10-13T07:54:45;15.48;;;7.95;;
21554;SDS011;10938;44.794;-0.676;2022-10-13T07:57:11;19.08;;;8.23;;
21554;SDS011;10938;44.794;-0.676;2022-10-13T07:59:36;11.23;;;6.55;;
21554;SDS011;10938;44.794;-0.676;2022-10-13T08:02:02;10.13;;;6.65;;
21554;SDS011;10938;44.794;-0.676;2022-10-13T08:04:31;13.23;;;7.75;;
21554;SDS011;10938;44.794;-0.676;2022-10-13T08:06:58;9.68;;;7.50;;
21554;SDS011;10938;44.794;-0.676;2022-10-13T08:09:25;12.15;;;6.53;;
21554;SDS011;10938;44.794;-0.676;2022-10-13T08:11:51;12.77;;;7.07;;
21554;SDS011;10938;44.794;-0.676;2022-10-13T08:14:17;9.88;;;6.32;;
21554;SDS011;10938;44.794;-0.676;2022-10-13T08:16:43;13.10;;;7.40;;
21554;SDS011;10938;44.794;-0.676;2022-10-13T08:19:13;13.90;;;7.20;;
21554;SDS011;10938;44.794;-0.676;2022-10-13T08:21:39;12.48;;;6.85;;
21554;SDS011;10938;44.794;-0.676;2022-10-13T08:24:05;11.75;;;7.10;;
21554;SDS011;10938;44.794;-0.676;2022-10-13T08:26:33;12.15;;;6.68;;
21554;SDS011;10938;44.794;-0.676;2022-10-13T08:28:58;14.85;;;7.35;;
21554;SDS011;10938;44.794;-0.676;2022-10-13T08:31:24;10.07;;;5.88;;
21554;SDS011;10938;44.794;-0.676;2022-10-13T08:33:49;10.02;;;6.43;;
21554;SDS011;10938;44.794;-0.676;2022-10-13T08:36:16;15.52;;;7.55;;
21554;SDS011;10938;44.794;-0.676;2022-10-13T08:38:42;12.25;;;5.97;;
21554;SDS011;10938;44.794;-0.676;2022-10-13T08:49:52;8.15;;;6.20;;
21554;SDS011;10938;44.794;-0.676;2022-10-13T08:52:21;10.07;;;6.35;;
21554;SDS011;10938;44.794;-0.676;2022-10-13T08:54:49;13.52;;;6.85;;
21554;SDS011;10938;44.794;-0.676;2022-10-13T08:57:15;10.05;;;7.07;;
21554;SDS011;10938;44.794;-0.676;2022-10-13T08:59:45;15.68;;;8.93;;
21554;SDS011;10938;44.794;-0.676;2022-10-13T09:02:24;8.25;;;5.90;;
21554;SDS011;10938;44.794;-0.676;2022-10-13T09:04:55;7.85;;;5.55;;
21554;SDS011;10938;44.794;-0.676;2022-10-13T09:07:27;10.30;;;5.38;;
21554;SDS011;10938;44.794;-0.676;2022-10-13T09:09:55;7.45;;;5.22;;
21554;SDS011;10938;44.794;-0.676;2022-10-13T09:12:21;12.77;;;6.03;;
21554;SDS011;10938;44.794;-0.676;2022-10-13T09:15:00;14.27;;;6.30;;
21554;SDS011;10938;44.794;-0.676;2022-10-13T09:17:30;11.23;;;5.78;;
21554;SDS011;10938;44.794;-0.676;2022-10-13T09:19:59;10.38;;;6.32;;
21554;SDS011;10938;44.794;-0.676;2022-10-13T09:22:30;11.30;;;6.05;;
21554;SDS011;10938;44.794;-0.676;2022-10-13T09:30:28;12.25;;;7.10;;
21554;SDS011;10938;44.794;-0.676;2022-10-13T09:35:40;13.98;;;6.70;;
21554;SDS011;10938;44.794;-0.676;2022-10-13T09:38:35;11.07;;;6.40;;
21554;SDS011;10938;44.794;-0.676;2022-10-13T09:48:42;12.10;;;5.90;;
21554;SDS011;10938;44.794;-0.676;2022-10-13T09:51:52;13.73;;;5.82;;
21554;SDS011;10938;44.794;-0.676;2022-10-13T09:57:10;10.68;;;6.70;;
21554;SDS011;10938;44.794;-0.676;2022-10-13T09:59:51;13.50;;;6.13;;
21554;SDS011;10938;44.794;-0.676;2022-10-13T10:05:44;12.70;;;5.97;;
21554;SDS011;10938;44.794;-0.676;2022-10-13T10:10:55;12.93;;;5.50;;
21554;SDS011;10938;44.794;-0.676;2022-10-13T10:13:25;9.50;;;5.50;;
21554;SDS011;10938;44.794;-0.676;2022-10-13T10:16:02;9.25;;;4.95;;
21554;SDS011;10938;44.794;-0.676;2022-10-13T10:21:54;10.45;;;4.90;;
21554;SDS011;10938;44.794;-0.676;2022-10-13T10:27:17;11.18;;;4.93;;
21554;SDS011;10938;44.794;-0.676;2022-10-13T10:45:43;8.20;;;3.83;;
21554;SDS011;10938;44.794;-0.676;2022-10-13T10:48:16;9.82;;;3.67;;
21554;SDS011;10938;44.794;-0.676;2022-10-13T10:50:45;8.68;;;4.13;;
21554;SDS011;10938;44.794;-0.676;2022-10-13T10:53:13;8.35;;;3.78;;
21554;SDS011;10938;44.794;-0.676;2022-10-13T10:55:50;7.65;;;3.67;;
21554;SDS011;10938;44.794;-0.676;2022-10-13T10:58:28;11.55;;;3.92;;
21554;SDS011;10938;44.794;-0.676;2022-10-13T11:01:04;9.88;;;3.53;;
21554;SDS011;10938;44.794;-0.676;2022-10-13T11:06:24;8.35;;;3.58;;
21554;SDS011;10938;44.794;-0.676;2022-10-13T11:08:56;8.65;;;3.50;;
21554;SDS011;10938;44.794;-0.676;2022-10-13T11:13:51;7.72;;;3.53;;
21554;SDS011;10938;44.794;-0.676;2022-10-13T11:16:28;10.55;;;3.60;;
21554;SDS011;10938;44.794;-0.676;2022-10-13T11:32:40;8.90;;;2.72;;
21554;SDS011;10938;44.794;-0.676;2022-10-13T11:40:15;7.55;;;3.17;;
21554;SDS011;10938;44.794;-0.676;2022-10-13T11:42:50;9.00;;;3.65;;
21554;SDS011;10938;44.794;-0.676;2022-10-13T11:56:50;7.53;;;3.80;;
21554;SDS011;10938;44.794;-0.676;2022-10-13T12:02:31;8.20;;;3.55;;
21554;SDS011;10938;44.794;-0.676;2022-10-13T12:04:42;9.70;;;3.60;;
21554;SDS011;10938;44.794;-0.676;2022-10-13T12:07:09;8.82;;;3.53;;
21554;SDS011;10938;44.794;-0.676;2022-10-13T12:09:48;9.57;;;3.35;;
21554;SDS011;10938;44.794;-0.676;2022-10-13T12:12:16;9.10;;;3.67;;
21554;SDS011;10938;44.794;-0.676;2022-10-13T12:14:45;6.68;;;3.50;;
21554;SDS011;10938;44.794;-0.676;2022-10-13T12:19:50;11.32;;;3.38;;
21554;SDS011;10938;44.794;-0.676;2022-10-13T12:22:20;12.60;;;3.70;;
21554;SDS011;10938;44.794;-0.676;2022-10-13T12:24:59;7.07;;;3.33;;
21554;SDS011;10938;44.794;-0.676;2022-10-13T12:27:27;10.63;;;3.53;;
21554;SDS011;10938;44.794;-0.676;2022-10-13T12:29:58;7.78;;;3.38;;
21554;SDS011;10938;44.794;-0.676;2022-10-13T12:32:26;11.95;;;3.28;;
21554;SDS011;10938;44.794;-0.676;2022-10-13T12:34:53;6.30;;;3.03;;
21554;SDS011;10938;44.794;-0.676;2022-10-13T12:37:26;8.15;;;3.20;;
21554;SDS011;10938;44.794;-0.676;2022-10-13T12:39:55;9.15;;;3.63;;
21554;SDS011;10938;44.794;-0.676;2022-10-13T12:42:29;9.35;;;3.30;;
21554;SDS011;10938;44.794;-0.676;2022-10-13T12:44:57;8.85;;;3.38;;
21554;SDS011;10938;44.794;-0.676;2022-10-13T12:47:38;10.32;;;3.58;;
21554;SDS011;10938;44.794;-0.676;2022-10-13T12:52:47;6.18;;;3.10;;
21554;SDS011;10938;44.794;-0.676;2022-10-13T12:55:16;8.00;;;3.00;;
21554;SDS011;10938;44.794;-0.676;2022-10-13T12:57:45;11.43;;;3.42;;
21554;SDS011;10938;44.794;-0.676;2022-10-13T13:05:34;5.55;;;2.63;;
21554;SDS011;10938;44.794;-0.676;2022-10-13T13:08:01;7.25;;;3.00;;
21554;SDS011;10938;44.794;-0.676;2022-10-13T13:10:30;11.60;;;3.35;;
21554;SDS011;10938;44.794;-0.676;2022-10-13T13:13:00;12.27;;;3.70;;
21554;SDS011;10938;44.794;-0.676;2022-10-13T13:15:38;10.40;;;2.95;;
21554;SDS011;10938;44.794;-0.676;2022-10-13T13:18:22;10.52;;;3.40;;
21554;SDS011;10938;44.794;-0.676;2022-10-13T13:20:53;11.27;;;3.10;;
21554;SDS011;10938;44.794;-0.676;2022-10-13T13:23:19;11.07;;;3.20;;
21554;SDS011;10938;44.794;-0.676;2022-10-13T13:25:46;9.57;;;2.50;;
21554;SDS011;10938;44.794;-0.676;2022-10-13T13:28:12;7.70;;;3.25;;
21554;SDS011;10938;44.794;-0.676;2022-10-13T13:30:40;5.72;;;2.80;;
21554;SDS011;10938;44.794;-0.676;2022-10-13T13:33:07;6.72;;;3.05;;
21554;SDS011;10938;44.794;-0.676;2022-10-13T13:35:33;8.25;;;2.53;;
21554;SDS011;10938;44.794;-0.676;2022-10-13T13:37:59;6.47;;;2.75;;
21554;SDS011;10938;44.794;-0.676;2022-10-13T13:40:25;10.93;;;2.60;;
21554;SDS011;10938;44.794;-0.676;2022-10-13T13:42:52;9.73;;;3.10;;
21554;SDS011;10938;44.794;-0.676;2022-10-13T13:45:21;14.48;;;3.45;;
21554;SDS011;10938;44.794;-0.676;2022-10-13T13:47:50;7.32;;;2.78;;
21554;SDS011;10938;44.794;-0.676;2022-10-13T13:50:23;8.63;;;2.78;;
21554;SDS011;10938;44.794;-0.676;2022-10-13T13:52:50;7.07;;;2.50;;
21554;SDS011;10938;44.794;-0.676;2022-10-13T13:55:16;6.18;;;2.72;;
21554;SDS011;10938;44.794;-0.676;2022-10-13T13:57:42;6.75;;;2.70;;
21554;SDS011;10938;44.794;-0.676;2022-10-13T14:00:09;6.85;;;2.30;;
21554;SDS011;10938;44.794;-0.676;2022-10-13T14:02:36;9.05;;;2.67;;
21554;SDS011;10938;44.794;-0.676;2022-10-13T14:05:02;8.40;;;2.53;;
21554;SDS011;10938;44.794;-0.676;2022-10-13T14:07:27;8.00;;;2.70;;
21554;SDS011;10938;44.794;-0.676;2022-10-13T14:09:53;10.45;;;2.80;;
21554;SDS011;10938;44.794;-0.676;2022-10-13T14:12:18;5.90;;;3.03;;
21554;SDS011;10938;44.794;-0.676;2022-10-13T14:14:44;7.95;;;2.50;;
21554;SDS011;10938;44.794;-0.676;2022-10-13T14:17:09;7.90;;;2.70;;
21554;SDS011;10938;44.794;-0.676;2022-10-13T14:19:34;5.85;;;2.40;;
21554;SDS011;10938;44.794;-0.676;2022-10-13T14:22:00;8.60;;;2.63;;
21554;SDS011;10938;44.794;-0.676;2022-10-13T14:24:26;7.28;;;2.55;;
21554;SDS011;10938;44.794;-0.676;2022-10-13T14:26:54;9.88;;;2.45;;
21554;SDS011;10938;44.794;-0.676;2022-10-13T14:29:20;7.72;;;2.70;;
21554;SDS011;10938;44.794;-0.676;2022-10-13T14:31:45;6.15;;;2.58;;
21554;SDS011;10938;44.794;-0.676;2022-10-13T14:34:11;10.23;;;2.90;;
21554;SDS011;10938;44.794;-0.676;2022-10-13T14:36:37;9.77;;;2.90;;
21554;SDS011;10938;44.794;-0.676;2022-10-13T14:39:02;7.57;;;2.85;;
21554;SDS011;10938;44.794;-0.676;2022-10-13T14:41:28;6.65;;;3.03;;
21554;SDS011;10938;44.794;-0.676;2022-10-13T14:43:54;8.63;;;3.42;;
21554;SDS011;10938;44.794;-0.676;2022-10-13T14:46:20;7.22;;;2.90;;
21554;SDS011;10938;44.794;-0.676;2022-10-13T14:48:47;8.10;;;3.40;;
21554;SDS011;10938;44.794;-0.676;2022-10-13T14:51:12;12.23;;;3.55;;
21554;SDS011;10938;44.794;-0.676;2022-10-13T14:53:39;9.05;;;3.42;;
21554;SDS011;10938;44.794;-0.676;2022-10-13T14:56:14;10.55;;;3.25;;
21554;SDS011;10938;44.794;-0.676;2022-10-13T14:58:42;9.77;;;3.50;;
21554;SDS011;10938;44.794;-0.676;2022-10-13T15:01:08;10.38;;;3.65;;
21554;SDS011;10938;44.794;-0.676;2022-10-13T15:03:33;9.90;;;3.15;;
21554;SDS011;10938;44.794;-0.676;2022-10-13T15:05:59;7.35;;;3.30;;
21554;SDS011;10938;44.794;-0.676;2022-10-13T15:08:25;7.97;;;3.60;;
21554;SDS011;10938;44.794;-0.676;2022-10-13T15:11:00;7.78;;;3.05;;
21554;SDS011;10938;44.794;-0.676;2022-10-13T15:13:26;9.93;;;3.53;;
21554;SDS011;10938;44.794;-0.676;2022-10-13T15:15:52;7.47;;;3.00;;
21554;SDS011;10938;44.794;-0.676;2022-10-13T15:18:20;11.68;;;3.63;;
21554;SDS011;10938;44.794;-0.676;2022-10-13T15:20:46;8.05;;;2.85;;
21554;SDS011;10938;44.794;-0.676;2022-10-13T15:23:12;10.25;;;3.28;;
21554;SDS011;10938;44.794;-0.676;2022-10-13T15:25:38;6.90;;;2.90;;
21554;SDS011;10938;44.794;-0.676;2022-10-13T15:28:04;9.98;;;2.90;;
21554;SDS011;10938;44.794;-0.676;2022-10-13T15:30:31;9.50;;;3.40;;
21554;SDS011;10938;44.794;-0.676;2022-10-13T15:32:57;12.05;;;3.08;;
21554;SDS011;10938;44.794;-0.676;2022-10-13T15:35:23;6.00;;;2.63;;
21554;SDS011;10938;44.794;-0.676;2022-10-13T15:37:48;7.60;;;2.90;;
21554;SDS011;10938;44.794;-0.676;2022-10-13T15:40:14;10.57;;;3.15;;
21554;SDS011;10938;44.794;-0.676;2022-10-13T15:42:39;8.30;;;2.80;;
21554;SDS011;10938;44.794;-0.676;2022-10-13T15:45:05;7.28;;;2.33;;
21554;SDS011;10938;44.794;-0.676;2022-10-13T15:47:30;9.77;;;2.78;;
21554;SDS011;10938;44.794;-0.676;2022-10-13T15:49:55;12.82;;;3.30;;
21554;SDS011;10938;44.794;-0.676;2022-10-13T15:52:21;9.05;;;2.75;;
21554;SDS011;10938;44.794;-0.676;2022-10-13T15:54:46;9.88;;;3.10;;
21554;SDS011;10938;44.794;-0.676;2022-10-13T15:57:15;8.63;;;2.80;;
21554;SDS011;10938;44.794;-0.676;2022-10-13T15:59:40;7.90;;;2.60;;
21554;SDS011;10938;44.794;-0.676;2022-10-13T16:02:06;9.23;;;2.67;;
21554;SDS011;10938;44.794;-0.676;2022-10-13T16:04:32;10.40;;;3.05;;
21554;SDS011;10938;44.794;-0.676;2022-10-13T16:06:58;9.13;;;2.88;;
21554;SDS011;10938;44.794;-0.676;2022-10-13T16:09:23;8.52;;;3.08;;
21554;SDS011;10938;44.794;-0.676;2022-10-13T16:11:51;11.43;;;2.97;;
21554;SDS011;10938;44.794;-0.676;2022-10-13T16:14:17;7.88;;;2.88;;
21554;SDS011;10938;44.794;-0.676;2022-10-13T16:16:43;8.32;;;2.80;;
21554;SDS011;10938;44.794;-0.676;2022-10-13T16:19:08;6.63;;;2.67;;
21554;SDS011;10938;44.794;-0.676;2022-10-13T16:21:34;12.43;;;3.47;;
21554;SDS011;10938;44.794;-0.676;2022-10-13T16:23:59;7.65;;;3.65;;
21554;SDS011;10938;44.794;-0.676;2022-10-13T16:26:24;11.00;;;3.72;;
21554;SDS011;10938;44.794;-0.676;2022-10-13T16:28:52;8.93;;;3.63;;
21554;SDS011;10938;44.794;-0.676;2022-10-13T16:31:19;9.68;;;3.25;;
21554;SDS011;10938;44.794;-0.676;2022-10-13T16:33:45;10.57;;;3.75;;
21554;SDS011;10938;44.794;-0.676;2022-10-13T16:36:11;8.55;;;3.83;;
21554;SDS011;10938;44.794;-0.676;2022-10-13T16:38:39;8.50;;;3.90;;
21554;SDS011;10938;44.794;-0.676;2022-10-13T16:41:06;11.55;;;3.90;;
21554;SDS011;10938;44.794;-0.676;2022-10-13T16:43:34;10.30;;;3.80;;
21554;SDS011;10938;44.794;-0.676;2022-10-13T16:46:00;12.43;;;4.07;;